Time;durP1;ratioP1;P1;durP2;ratioP2;P2;SDS_P1;SDS_P2;PMS_P1;PMS_P2;Temp;Humidity;BMP_temperature;BMP_pressure;BME280_temperature;BME280_humidity;BME280_pressure;Samples;Min_cycle;Max_cycle;Signal;HPM_P1;HPM_P2
2021/12/17 00:00:57;;;;;;;66.80;37.50;;;;;;;;;;4962894;28;20276;-59
2021/12/17 00:03:33;;;;;;;67.77;37.60;;;;;;;;;;4964250;28;20238;-59
2021/12/17 00:06:16;;;;;;;65.60;36.53;;;;;;;;;;4961381;28;20384;-59
2021/12/17 00:08:43;;;;;;;61.43;35.80;;;;;;;;;;4965902;28;20272;-59
2021/12/17 00:11:10;;;;;;;63.57;36.53;;;;;;;;;;4955435;28;20340;-60
2021/12/17 00:13:36;;;;;;;66.23;35.47;;;;;;;;;;4958369;28;20320;-59
2021/12/17 00:16:11;;;;;;;59.77;34.63;;;;;;;;;;4953141;28;20269;-59
2021/12/17 00:18:50;;;;;;;64.00;35.77;;;;;;;;;;4956847;28;20241;-59
2021/12/17 00:48:36;;;;;;;61.47;35.43;;;;;;;;;;4995908;28;20461;-59
2021/12/17 00:54:03;;;;;;;59.03;35.33;;;;;;;;;;4983348;28;20237;-60
2021/12/17 00:56:29;;;;;;;63.90;33.37;;;;;;;;;;4999505;28;20239;-59
2021/12/17 00:58:55;;;;;;;59.90;34.57;;;;;;;;;;5009843;28;20241;-59
2021/12/17 01:01:21;;;;;;;64.23;35.63;;;;;;;;;;5000219;28;20236;-59
2021/12/17 01:03:47;;;;;;;59.23;33.30;;;;;;;;;;4994499;28;20240;-60
2021/12/17 01:06:13;;;;;;;62.20;34.33;;;;;;;;;;4997228;28;20240;-59
2021/12/17 01:08:39;;;;;;;63.80;33.70;;;;;;;;;;5000141;28;22163;-59
2021/12/17 01:11:05;;;;;;;67.33;34.60;;;;;;;;;;4975211;28;20597;-60
2021/12/17 01:13:31;;;;;;;67.47;34.27;;;;;;;;;;4989924;28;20478;-60
2021/12/17 01:15:57;;;;;;;62.57;34.47;;;;;;;;;;4989751;28;20232;-59
2021/12/17 01:18:33;;;;;;;60.10;35.13;;;;;;;;;;4997943;28;20533;-59
2021/12/17 01:21:23;;;;;;;63.10;35.30;;;;;;;;;;4999607;28;20510;-59
2021/12/17 01:42:40;;;;;;;67.30;36.10;;;;;;;;;;4990463;28;22481;-59
2021/12/17 01:45:06;;;;;;;68.87;35.60;;;;;;;;;;4998058;28;20227;-60
2021/12/17 01:47:32;;;;;;;69.17;35.53;;;;;;;;;;4995312;28;20228;-59
2021/12/17 02:01:12;;;;;;;70.90;35.97;;;;;;;;;;5004116;28;20725;-59
2021/12/17 02:03:38;;;;;;;73.27;35.40;;;;;;;;;;5005231;28;20296;-59
2021/12/17 02:06:05;;;;;;;67.13;35.77;;;;;;;;;;4994205;28;21002;-59
2021/12/17 02:08:31;;;;;;;70.20;34.77;;;;;;;;;;4991151;28;20340;-60
2021/12/17 02:11:35;;;;;;;68.50;34.50;;;;;;;;;;4995083;28;20712;-60
2021/12/17 02:19:44;;;;;;;61.87;33.23;;;;;;;;;;4999904;28;20316;-60
2021/12/17 02:30:29;;;;;;;67.40;35.13;;;;;;;;;;4996683;28;20286;-60
2021/12/17 02:32:55;;;;;;;61.73;34.77;;;;;;;;;;5000764;28;20232;-59
2021/12/17 02:35:40;;;;;;;66.73;34.50;;;;;;;;;;4989683;28;20306;-60
2021/12/17 02:38:08;;;;;;;63.17;35.03;;;;;;;;;;4995697;28;20750;-60
2021/12/17 02:45:48;;;;;;;64.37;34.20;;;;;;;;;;4993083;28;20235;-60
2021/12/17 02:48:18;;;;;;;65.27;35.50;;;;;;;;;;4965557;28;20244;-59
2021/12/17 02:50:45;;;;;;;67.47;35.13;;;;;;;;;;4995262;28;20229;-60
2021/12/17 02:53:11;;;;;;;62.37;32.90;;;;;;;;;;5005504;28;20224;-59
2021/12/17 02:55:38;;;;;;;65.10;35.10;;;;;;;;;;4999478;28;20622;-60
2021/12/17 02:58:04;;;;;;;69.83;33.90;;;;;;;;;;4991625;28;20743;-59
2021/12/17 03:00:30;;;;;;;65.53;34.73;;;;;;;;;;4997402;28;20236;-59
2021/12/17 03:02:56;;;;;;;61.27;34.07;;;;;;;;;;5000046;28;20717;-59
2021/12/17 03:05:23;;;;;;;59.90;32.20;;;;;;;;;;4993013;28;20260;-60
2021/12/17 03:07:49;;;;;;;64.10;34.70;;;;;;;;;;4979252;28;20233;-60
2021/12/17 03:10:15;;;;;;;69.07;35.70;;;;;;;;;;4988756;28;20229;-59
2021/12/17 03:12:45;;;;;;;64.23;34.43;;;;;;;;;;4992965;28;20234;-59
2021/12/17 03:26:04;;;;;;;61.27;33.77;;;;;;;;;;4996330;28;20331;-59
2021/12/17 03:28:30;;;;;;;63.60;33.97;;;;;;;;;;5001946;28;20298;-59
2021/12/17 03:30:56;;;;;;;63.73;33.90;;;;;;;;;;5000177;28;20241;-59
2021/12/17 03:33:22;;;;;;;64.50;33.63;;;;;;;;;;4993011;28;20233;-59
2021/12/17 03:35:49;;;;;;;60.23;33.67;;;;;;;;;;4991990;28;20257;-59
2021/12/17 03:38:15;;;;;;;63.90;34.07;;;;;;;;;;4995001;28;20923;-59
2021/12/17 03:40:42;;;;;;;60.73;33.80;;;;;;;;;;4995901;28;20240;-60
2021/12/17 03:43:22;;;;;;;60.50;32.83;;;;;;;;;;4993141;28;20265;-59
2021/12/17 03:45:48;;;;;;;62.93;32.77;;;;;;;;;;4993032;28;20240;-59
2021/12/17 03:48:13;;;;;;;58.60;32.70;;;;;;;;;;4990352;28;20619;-60
2021/12/17 03:50:39;;;;;;;53.50;31.20;;;;;;;;;;4991935;28;20296;-59
2021/12/17 03:53:05;;;;;;;60.30;32.97;;;;;;;;;;4994645;28;20645;-59
2021/12/17 03:55:31;;;;;;;65.43;34.20;;;;;;;;;;4994392;28;20882;-60
2021/12/17 03:58:01;;;;;;;57.43;32.40;;;;;;;;;;4990307;28;20229;-59
2021/12/17 04:00:28;;;;;;;59.60;32.37;;;;;;;;;;4991605;28;20624;-59
2021/12/17 04:02:54;;;;;;;61.90;32.97;;;;;;;;;;4994531;28;20237;-60
2021/12/17 04:05:20;;;;;;;58.60;31.80;;;;;;;;;;5000513;28;20239;-59
2021/12/17 04:07:46;;;;;;;62.67;34.10;;;;;;;;;;4996562;28;22743;-59
2021/12/17 04:10:12;;;;;;;59.10;32.30;;;;;;;;;;4998581;28;20246;-60
2021/12/17 04:13:26;;;;;;;61.00;32.53;;;;;;;;;;4997305;28;20253;-59
2021/12/17 04:15:35;;;;;;;58.60;32.53;;;;;;;;;;4985465;28;20240;-59
2021/12/17 04:18:04;;;;;;;63.70;31.87;;;;;;;;;;4988661;28;20233;-59
2021/12/17 04:20:30;;;;;;;61.17;31.87;;;;;;;;;;4989405;28;20225;-59
2021/12/17 04:22:56;;;;;;;61.60;32.27;;;;;;;;;;4998907;28;20226;-59
2021/12/17 04:25:23;;;;;;;59.20;31.50;;;;;;;;;;4990547;28;20260;-59
2021/12/17 04:27:49;;;;;;;61.60;33.77;;;;;;;;;;4992224;28;20245;-60
2021/12/17 04:30:15;;;;;;;58.83;31.50;;;;;;;;;;4996532;28;20290;-60
2021/12/17 04:32:41;;;;;;;60.27;33.17;;;;;;;;;;4995736;28;20319;-60
2021/12/17 04:35:07;;;;;;;64.07;34.93;;;;;;;;;;4991077;28;20980;-60
2021/12/17 04:37:33;;;;;;;62.80;33.87;;;;;;;;;;4990767;28;20233;-60
2021/12/17 04:40:00;;;;;;;58.00;33.43;;;;;;;;;;4988762;28;20233;-59
2021/12/17 04:43:16;;;;;;;61.50;34.13;;;;;;;;;;4991932;28;20229;-59
2021/12/17 04:45:12;;;;;;;62.50;33.03;;;;;;;;;;4984225;28;20240;-59
2021/12/17 04:58:37;;;;;;;57.00;31.67;;;;;;;;;;4984297;28;20275;-59
2021/12/17 05:01:09;;;;;;;56.73;31.77;;;;;;;;;;4990342;28;20229;-59
2021/12/17 05:03:35;;;;;;;55.17;31.57;;;;;;;;;;4994757;28;20351;-59
2021/12/17 05:06:01;;;;;;;58.93;32.53;;;;;;;;;;4995372;28;20221;-59
2021/12/17 05:08:28;;;;;;;57.13;30.77;;;;;;;;;;4996121;28;20364;-60
2021/12/17 05:22:09;;;;;;;59.10;32.63;;;;;;;;;;4984998;28;20235;-59
2021/12/17 05:24:35;;;;;;;58.13;32.30;;;;;;;;;;4998151;28;20788;-60
2021/12/17 05:27:01;;;;;;;60.07;31.47;;;;;;;;;;5005367;28;20319;-59
2021/12/17 05:29:27;;;;;;;58.23;30.90;;;;;;;;;;4999010;28;20236;-60
2021/12/17 05:31:53;;;;;;;54.43;30.03;;;;;;;;;;4997521;28;20993;-59
2021/12/17 05:34:19;;;;;;;57.10;31.90;;;;;;;;;;4994581;28;20225;-60
2021/12/17 05:36:45;;;;;;;56.23;30.80;;;;;;;;;;4994922;28;20245;-59
2021/12/17 05:39:10;;;;;;;59.50;30.67;;;;;;;;;;4995021;28;20709;-59
2021/12/17 05:41:36;;;;;;;53.23;29.83;;;;;;;;;;4994832;28;21136;-59
2021/12/17 05:44:03;;;;;;;50.93;28.60;;;;;;;;;;4992104;28;20618;-59
2021/12/17 05:49:04;;;;;;;51.47;31.03;;;;;;;;;;4994464;28;20740;-59
2021/12/17 05:51:30;;;;;;;55.37;29.77;;;;;;;;;;4993450;28;20707;-60
2021/12/17 05:53:56;;;;;;;56.10;30.53;;;;;;;;;;5000061;28;20360;-59
2021/12/17 05:56:22;;;;;;;55.83;30.50;;;;;;;;;;4992250;28;20232;-60
2021/12/17 05:58:48;;;;;;;53.07;28.63;;;;;;;;;;4988865;28;20812;-60
2021/12/17 06:01:14;;;;;;;55.37;31.13;;;;;;;;;;4991078;28;20232;-59
2021/12/17 06:03:40;;;;;;;53.23;30.30;;;;;;;;;;4973648;28;20236;-59
2021/12/17 06:06:06;;;;;;;52.97;29.33;;;;;;;;;;4996403;28;20256;-59
2021/12/17 06:08:32;;;;;;;57.43;29.63;;;;;;;;;;4988932;28;20233;-59
2021/12/17 06:10:58;;;;;;;55.87;30.77;;;;;;;;;;4987687;28;20730;-60
2021/12/17 06:13:24;;;;;;;60.00;30.93;;;;;;;;;;4989893;28;20270;-60
2021/12/17 06:15:50;;;;;;;56.90;31.47;;;;;;;;;;4989218;28;20308;-59
2021/12/17 06:18:17;;;;;;;56.17;31.57;;;;;;;;;;4992039;28;20304;-60
2021/12/17 06:20:43;;;;;;;55.67;30.47;;;;;;;;;;4993694;28;20259;-60
2021/12/17 06:23:09;;;;;;;57.43;30.93;;;;;;;;;;4950456;23;20267;-64
2021/12/17 06:25:35;;;;;;;57.97;31.53;;;;;;;;;;5015137;28;20328;-64
2021/12/17 06:28:01;;;;;;;56.00;31.90;;;;;;;;;;5015101;28;20274;-63
2021/12/17 06:30:27;;;;;;;53.77;30.17;;;;;;;;;;5014391;28;20236;-64
2021/12/17 06:32:53;;;;;;;55.13;30.77;;;;;;;;;;5015058;28;20239;-62
2021/12/17 06:35:19;;;;;;;57.00;31.60;;;;;;;;;;5018771;28;20957;-64
2021/12/17 06:37:45;;;;;;;54.40;30.90;;;;;;;;;;5018550;28;20238;-65
2021/12/17 06:40:11;;;;;;;56.07;31.07;;;;;;;;;;5020493;28;20328;-64
2021/12/17 06:42:37;;;;;;;61.60;31.97;;;;;;;;;;5018258;28;20685;-64
2021/12/17 06:45:08;;;;;;;54.10;31.30;;;;;;;;;;5018769;28;20225;-64
2021/12/17 06:47:36;;;;;;;59.50;31.47;;;;;;;;;;5014016;28;20675;-64
2021/12/17 07:00:22;;;;;;;56.47;31.23;;;;;;;;;;5014085;28;20241;-64
2021/12/17 07:10:54;;;;;;;57.80;31.17;;;;;;;;;;5000191;28;20277;-64
2021/12/17 07:24:35;;;;;;;53.90;30.93;;;;;;;;;;4988882;28;20924;-64
2021/12/17 07:35:12;;;;;;;57.90;32.07;;;;;;;;;;4996815;28;20241;-64
2021/12/17 07:39:43;;;;;;;60.40;32.13;;;;;;;;;;5001905;28;20240;-64
2021/12/17 07:42:09;;;;;;;60.10;34.40;;;;;;;;;;4994751;28;20312;-64
2021/12/17 07:44:35;;;;;;;65.00;33.10;;;;;;;;;;4998676;28;20237;-64
2021/12/17 07:47:01;;;;;;;66.47;34.00;;;;;;;;;;4997031;28;20371;-63
2021/12/17 07:49:27;;;;;;;65.87;35.03;;;;;;;;;;4998092;28;20226;-63
2021/12/17 07:51:53;;;;;;;63.43;33.10;;;;;;;;;;4990256;28;20230;-64
2021/12/17 07:54:19;;;;;;;60.70;35.43;;;;;;;;;;4999457;28;20390;-64
2021/12/17 07:56:45;;;;;;;66.90;35.53;;;;;;;;;;4995148;28;20233;-64
2021/12/17 07:59:11;;;;;;;65.70;35.07;;;;;;;;;;4992665;28;20237;-63
2021/12/17 08:01:37;;;;;;;66.30;36.30;;;;;;;;;;4987902;28;20291;-63
2021/12/17 08:04:04;;;;;;;66.53;35.60;;;;;;;;;;4995623;28;20225;-65
2021/12/17 08:06:30;;;;;;;71.57;35.57;;;;;;;;;;4978371;28;20321;-65
2021/12/17 08:08:56;;;;;;;71.17;36.50;;;;;;;;;;4992934;28;20242;-65
2021/12/17 08:11:22;;;;;;;67.80;36.60;;;;;;;;;;4993004;28;20256;-64
2021/12/17 08:13:49;;;;;;;73.33;36.57;;;;;;;;;;4982525;28;20240;-64
2021/12/17 08:19:07;;;;;;;68.73;36.27;;;;;;;;;;4983174;28;20292;-64
2021/12/17 08:28:01;;;;;;;69.37;36.77;;;;;;;;;;4989499;28;20694;-63
2021/12/17 08:29:51;;;;;;;76.03;37.63;;;;;;;;;;4974370;28;20287;-64
2021/12/17 08:32:17;;;;;;;72.23;36.43;;;;;;;;;;4984379;28;20233;-64
2021/12/17 08:34:43;;;;;;;68.87;35.87;;;;;;;;;;4985860;28;20268;-64
2021/12/17 08:37:10;;;;;;;70.10;36.73;;;;;;;;;;4987332;28;20255;-65
2021/12/17 08:39:36;;;;;;;70.67;36.40;;;;;;;;;;4991953;28;20702;-64
2021/12/17 08:42:02;;;;;;;66.77;36.70;;;;;;;;;;4989608;28;20383;-64
2021/12/17 08:44:28;;;;;;;72.67;37.07;;;;;;;;;;4986437;28;20299;-63
2021/12/17 08:46:54;;;;;;;70.70;35.93;;;;;;;;;;4980895;28;20367;-64
2021/12/17 08:49:20;;;;;;;76.23;36.63;;;;;;;;;;4989303;28;20239;-64
2021/12/17 08:51:46;;;;;;;65.77;35.80;;;;;;;;;;4977307;28;20245;-64
2021/12/17 08:54:12;;;;;;;74.17;36.17;;;;;;;;;;4989785;28;20605;-64
2021/12/17 08:56:42;;;;;;;80.30;37.83;;;;;;;;;;4989482;28;20241;-63
2021/12/17 08:59:08;;;;;;;70.37;37.07;;;;;;;;;;4970425;28;20963;-64
2021/12/17 09:01:34;;;;;;;76.13;35.43;;;;;;;;;;4976623;28;20228;-64
2021/12/17 09:04:01;;;;;;;75.27;36.40;;;;;;;;;;4990989;28;20239;-64
2021/12/17 09:06:28;;;;;;;76.77;37.87;;;;;;;;;;4985090;28;20603;-64
2021/12/17 09:08:54;;;;;;;75.30;37.80;;;;;;;;;;4991349;28;20245;-64
2021/12/17 09:11:22;;;;;;;76.07;38.20;;;;;;;;;;4988381;28;20229;-64
2021/12/17 09:13:48;;;;;;;75.37;37.10;;;;;;;;;;4988813;28;20278;-63
2021/12/17 09:16:14;;;;;;;80.23;37.77;;;;;;;;;;4984768;28;20964;-65
2021/12/17 09:18:40;;;;;;;76.23;37.83;;;;;;;;;;4990292;28;20233;-64
2021/12/17 09:21:06;;;;;;;78.27;37.40;;;;;;;;;;4992690;28;20993;-63
2021/12/17 09:23:32;;;;;;;77.93;36.60;;;;;;;;;;4988625;28;20236;-64
2021/12/17 09:25:58;;;;;;;84.23;39.67;;;;;;;;;;4989506;28;20512;-64
2021/12/17 09:28:24;;;;;;;75.07;36.50;;;;;;;;;;4992727;28;20279;-64
2021/12/17 09:30:50;;;;;;;86.30;36.97;;;;;;;;;;4989206;28;20566;-64
2021/12/17 09:33:16;;;;;;;81.97;38.23;;;;;;;;;;4990733;28;21639;-63
2021/12/17 09:35:42;;;;;;;76.80;36.87;;;;;;;;;;4987633;28;20816;-63
2021/12/17 09:38:08;;;;;;;83.13;37.17;;;;;;;;;;4990631;28;20230;-64
2021/12/17 09:40:34;;;;;;;81.20;37.63;;;;;;;;;;4975736;28;20272;-63
2021/12/17 09:43:00;;;;;;;80.53;36.63;;;;;;;;;;4987010;28;20658;-64
2021/12/17 09:45:26;;;;;;;83.53;36.33;;;;;;;;;;4987449;28;20859;-64
2021/12/17 09:47:52;;;;;;;84.50;35.50;;;;;;;;;;4968545;28;20241;-64
2021/12/17 09:50:19;;;;;;;80.03;35.60;;;;;;;;;;4993217;28;20784;-65
2021/12/17 09:52:45;;;;;;;84.43;37.27;;;;;;;;;;4990265;28;20802;-64
2021/12/17 09:55:11;;;;;;;82.37;36.17;;;;;;;;;;4991337;28;21988;-65
2021/12/17 09:57:37;;;;;;;76.63;34.60;;;;;;;;;;4988968;28;20267;-64
2021/12/17 10:00:06;;;;;;;76.87;35.00;;;;;;;;;;4989346;28;20229;-64
2021/12/17 10:02:32;;;;;;;76.63;34.67;;;;;;;;;;4996531;28;21817;-64
2021/12/17 10:04:58;;;;;;;82.90;35.10;;;;;;;;;;4997309;28;20244;-64
2021/12/17 10:07:25;;;;;;;84.33;36.23;;;;;;;;;;4997082;28;20237;-64
2021/12/17 10:10:01;;;;;;;78.33;34.50;;;;;;;;;;4993275;28;20249;-64
2021/12/17 10:12:28;;;;;;;77.47;34.30;;;;;;;;;;4994096;28;20762;-65
2021/12/17 10:15:13;;;;;;;89.47;36.20;;;;;;;;;;4989100;28;20248;-64
2021/12/17 10:18:01;;;;;;;84.33;34.60;;;;;;;;;;4996582;28;21236;-65
2021/12/17 10:20:27;;;;;;;79.10;33.77;;;;;;;;;;4991070;28;20264;-64
2021/12/17 10:23:00;;;;;;;73.77;32.80;;;;;;;;;;4978577;28;20225;-64
2021/12/17 10:25:27;;;;;;;78.07;33.67;;;;;;;;;;4987323;28;20320;-63
2021/12/17 10:27:59;;;;;;;75.50;33.23;;;;;;;;;;4995716;28;20238;-64
2021/12/17 10:30:25;;;;;;;65.27;32.17;;;;;;;;;;4987307;28;20236;-64
2021/12/17 10:32:52;;;;;;;76.87;32.53;;;;;;;;;;4977807;28;20229;-64
2021/12/17 10:35:22;;;;;;;69.33;32.13;;;;;;;;;;4971231;28;20236;-64
2021/12/17 10:37:55;;;;;;;71.57;30.83;;;;;;;;;;4981168;28;20233;-64
2021/12/17 10:40:25;;;;;;;73.60;31.90;;;;;;;;;;4992056;28;20240;-64
2021/12/17 10:42:59;;;;;;;70.20;31.07;;;;;;;;;;4986115;28;20725;-64
2021/12/17 10:45:27;;;;;;;66.80;31.37;;;;;;;;;;4990341;28;20911;-63
2021/12/17 10:48:29;;;;;;;67.10;29.50;;;;;;;;;;4984540;28;20714;-65
2021/12/17 10:54:10;;;;;;;62.23;30.53;;;;;;;;;;4957021;28;20596;-64
2021/12/17 10:56:37;;;;;;;69.50;29.00;;;;;;;;;;4991311;28;20229;-64
2021/12/17 10:59:04;;;;;;;60.97;27.93;;;;;;;;;;4968852;28;20233;-64
2021/12/17 11:01:34;;;;;;;64.37;29.07;;;;;;;;;;4986092;28;20278;-63
2021/12/17 11:04:03;;;;;;;65.23;29.10;;;;;;;;;;4992400;28;20777;-64
2021/12/17 11:06:45;;;;;;;60.37;28.27;;;;;;;;;;4993116;28;20244;-64
2021/12/17 11:09:11;;;;;;;56.40;27.80;;;;;;;;;;4990345;28;20238;-65
2021/12/17 11:11:42;;;;;;;61.67;27.93;;;;;;;;;;4993389;28;20225;-63
2021/12/17 11:14:08;;;;;;;58.10;26.87;;;;;;;;;;4990900;28;20233;-63
2021/12/17 11:16:36;;;;;;;62.73;27.70;;;;;;;;;;4989215;28;22179;-64
2021/12/17 11:19:01;;;;;;;56.90;26.57;;;;;;;;;;4987689;28;20699;-64
2021/12/17 11:21:27;;;;;;;55.30;27.20;;;;;;;;;;4991674;28;20249;-64
2021/12/17 11:23:53;;;;;;;56.77;25.70;;;;;;;;;;4992358;28;20246;-64
2021/12/17 11:26:19;;;;;;;60.23;27.53;;;;;;;;;;4993880;28;20226;-64
2021/12/17 11:28:46;;;;;;;53.70;28.10;;;;;;;;;;4994649;28;20265;-64
2021/12/17 11:31:12;;;;;;;60.80;27.57;;;;;;;;;;4977139;28;20356;-64
2021/12/17 11:33:38;;;;;;;66.80;29.03;;;;;;;;;;4991614;28;20327;-64
2021/12/17 11:36:04;;;;;;;57.90;27.27;;;;;;;;;;4991129;28;20740;-65
2021/12/17 11:38:53;;;;;;;63.87;27.57;;;;;;;;;;4994637;28;20229;-64
2021/12/17 11:41:22;;;;;;;56.87;26.10;;;;;;;;;;4973322;28;20768;-65
2021/12/17 11:43:53;;;;;;;55.77;26.43;;;;;;;;;;4992018;28;20264;-64
2021/12/17 11:46:23;;;;;;;58.63;26.73;;;;;;;;;;4987267;28;20228;-65
2021/12/17 11:48:53;;;;;;;62.70;27.83;;;;;;;;;;4991334;28;20323;-65
2021/12/17 11:51:23;;;;;;;58.73;27.77;;;;;;;;;;4989610;28;20718;-64
2021/12/17 11:53:52;;;;;;;62.57;27.90;;;;;;;;;;4989041;28;20280;-65
2021/12/17 11:56:39;;;;;;;59.47;27.07;;;;;;;;;;4988425;28;20720;-65
2021/12/17 11:59:05;;;;;;;56.73;27.33;;;;;;;;;;4973811;28;22519;-64
2021/12/17 12:01:51;;;;;;;65.37;28.93;;;;;;;;;;4988331;28;21557;-65
2021/12/17 12:04:35;;;;;;;54.57;25.67;;;;;;;;;;4987821;28;20619;-64
2021/12/17 12:07:05;;;;;;;59.23;27.77;;;;;;;;;;4988485;28;20659;-64
2021/12/17 12:09:55;;;;;;;56.10;26.17;;;;;;;;;;4986286;28;24541;-64
2021/12/17 12:12:21;;;;;;;58.97;28.07;;;;;;;;;;4989808;28;20217;-64
2021/12/17 12:14:47;;;;;;;63.93;28.00;;;;;;;;;;4989950;28;21025;-66
2021/12/17 12:17:13;;;;;;;58.57;28.10;;;;;;;;;;4988046;28;20348;-65
2021/12/17 12:19:48;;;;;;;62.60;27.63;;;;;;;;;;4987628;28;20612;-66
2021/12/17 12:22:14;;;;;;;59.50;28.87;;;;;;;;;;4985034;28;20892;-65
2021/12/17 12:24:40;;;;;;;61.40;29.37;;;;;;;;;;4979015;28;21899;-65
2021/12/17 12:27:06;;;;;;;63.00;27.90;;;;;;;;;;4977758;28;20266;-64
2021/12/17 12:29:32;;;;;;;52.37;26.33;;;;;;;;;;4972339;28;20229;-64
2021/12/17 12:32:11;;;;;;;55.90;27.70;;;;;;;;;;4961172;28;20236;-65
2021/12/17 12:34:38;;;;;;;57.60;28.67;;;;;;;;;;4979904;28;20383;-65
2021/12/17 12:37:09;;;;;;;49.97;26.40;;;;;;;;;;4983880;28;20244;-65
2021/12/17 12:39:37;;;;;;;54.10;26.13;;;;;;;;;;4981299;28;20233;-65
2021/12/17 12:42:06;;;;;;;50.90;27.20;;;;;;;;;;4984613;28;20233;-66
2021/12/17 12:44:44;;;;;;;53.50;28.20;;;;;;;;;;4985954;28;20237;-64
2021/12/17 12:47:36;;;;;;;52.87;27.87;;;;;;;;;;4991813;28;20663;-64
2021/12/17 12:50:08;;;;;;;54.27;28.43;;;;;;;;;;4990689;28;20240;-65
2021/12/17 12:52:39;;;;;;;53.50;27.07;;;;;;;;;;4990451;28;20264;-65
2021/12/17 12:55:13;;;;;;;48.27;26.80;;;;;;;;;;4995851;28;20299;-65
2021/12/17 12:57:39;;;;;;;51.33;26.83;;;;;;;;;;4989752;28;20225;-64
2021/12/17 13:00:07;;;;;;;50.73;26.23;;;;;;;;;;4984029;28;20655;-64
2021/12/17 13:02:33;;;;;;;49.90;27.13;;;;;;;;;;4986919;28;20229;-65
2021/12/17 13:04:59;;;;;;;49.53;27.03;;;;;;;;;;4989534;28;20339;-66
2021/12/17 13:07:36;;;;;;;48.27;25.23;;;;;;;;;;4982374;28;20300;-64
2021/12/17 13:10:08;;;;;;;43.63;24.73;;;;;;;;;;4984636;28;20715;-65
2021/12/17 13:12:37;;;;;;;48.17;25.17;;;;;;;;;;4985222;28;20273;-65
2021/12/17 13:15:32;;;;;;;44.40;25.77;;;;;;;;;;4978610;28;21065;-65
2021/12/17 13:23:37;;;;;;;42.23;23.90;;;;;;;;;;4974882;28;20749;-64
2021/12/17 13:26:04;;;;;;;44.23;23.70;;;;;;;;;;4974307;28;20234;-65
2021/12/17 13:28:49;;;;;;;48.40;25.03;;;;;;;;;;4972572;28;20606;-64
2021/12/17 13:31:48;;;;;;;44.77;23.90;;;;;;;;;;4971068;28;20240;-64
2021/12/17 13:34:20;;;;;;;37.90;23.20;;;;;;;;;;4945902;28;20237;-64
2021/12/17 13:36:53;;;;;;;43.73;23.13;;;;;;;;;;4964106;28;20241;-65
2021/12/17 13:39:19;;;;;;;43.03;22.57;;;;;;;;;;4952687;28;20229;-64
2021/12/17 13:41:46;;;;;;;38.00;22.20;;;;;;;;;;4972702;28;20245;-64
2021/12/17 13:44:33;;;;;;;34.20;21.47;;;;;;;;;;4968133;28;20237;-64
2021/12/17 13:47:11;;;;;;;36.87;21.27;;;;;;;;;;4963860;28;20233;-64
2021/12/17 13:49:38;;;;;;;36.10;20.60;;;;;;;;;;4964841;28;20246;-64
2021/12/17 13:52:04;;;;;;;35.87;20.90;;;;;;;;;;4973776;28;20237;-64
2021/12/17 13:54:30;;;;;;;36.27;21.17;;;;;;;;;;4967968;28;20234;-65
2021/12/17 13:56:57;;;;;;;31.03;20.20;;;;;;;;;;4975364;28;20224;-65
2021/12/17 13:59:43;;;;;;;33.37;20.10;;;;;;;;;;4970152;28;21022;-64
2021/12/17 14:02:09;;;;;;;32.37;18.80;;;;;;;;;;4972714;28;20230;-64
2021/12/17 14:04:36;;;;;;;29.43;18.63;;;;;;;;;;4966330;28;20832;-63
2021/12/17 14:07:06;;;;;;;29.30;18.20;;;;;;;;;;4964190;28;20234;-64
2021/12/17 14:09:32;;;;;;;26.40;17.57;;;;;;;;;;4972299;28;20233;-63
2021/12/17 14:12:07;;;;;;;23.97;16.13;;;;;;;;;;4972500;28;20617;-63
2021/12/17 14:14:34;;;;;;;26.53;17.00;;;;;;;;;;4979473;28;20264;-63
2021/12/17 14:17:01;;;;;;;24.33;15.60;;;;;;;;;;4983591;28;20226;-63
2021/12/17 14:19:40;;;;;;;26.47;16.00;;;;;;;;;;4977622;28;20578;-63
2021/12/17 14:22:19;;;;;;;22.43;13.83;;;;;;;;;;4973707;28;20766;-64
2021/12/17 14:24:45;;;;;;;20.37;14.37;;;;;;;;;;4977913;28;20345;-64
2021/12/17 14:27:11;;;;;;;24.77;14.83;;;;;;;;;;4967347;28;20236;-62
2021/12/17 14:29:38;;;;;;;21.70;14.67;;;;;;;;;;4981730;28;20607;-62
2021/12/17 14:32:04;;;;;;;21.27;13.90;;;;;;;;;;4978932;28;20245;-63
2021/12/17 14:34:30;;;;;;;19.40;13.83;;;;;;;;;;4977330;28;20225;-62
2021/12/17 14:37:02;;;;;;;20.77;13.87;;;;;;;;;;4969686;28;20702;-63
2021/12/17 14:39:33;;;;;;;22.27;13.80;;;;;;;;;;4961866;28;20238;-63
2021/12/17 14:42:03;;;;;;;18.13;12.93;;;;;;;;;;4952983;28;20240;-63
2021/12/17 14:47:08;;;;;;;19.80;13.17;;;;;;;;;;4957714;28;20240;-63
2021/12/17 15:03:22;;;;;;;16.83;12.63;;;;;;;;;;4966282;28;20448;-62
2021/12/17 15:05:48;;;;;;;16.20;11.33;;;;;;;;;;4963964;28;20236;-63
2021/12/17 15:08:14;;;;;;;16.73;11.70;;;;;;;;;;4958477;28;20233;-63
2021/12/17 15:10:40;;;;;;;16.03;12.03;;;;;;;;;;4964877;28;20684;-63
2021/12/17 15:13:06;;;;;;;16.73;11.77;;;;;;;;;;4942150;28;20226;-63
2021/12/17 15:15:36;;;;;;;14.50;11.53;;;;;;;;;;4951492;28;20244;-64
2021/12/17 15:18:02;;;;;;;15.13;11.67;;;;;;;;;;4967793;28;24564;-63
2021/12/17 15:20:29;;;;;;;15.83;11.97;;;;;;;;;;4953117;28;20323;-64
2021/12/17 15:22:56;;;;;;;15.93;11.90;;;;;;;;;;4965352;28;20745;-63
2021/12/17 15:25:22;;;;;;;16.70;11.93;;;;;;;;;;4963782;28;20515;-63
2021/12/17 15:27:48;;;;;;;16.30;11.87;;;;;;;;;;4970726;28;20257;-64
2021/12/17 15:30:20;;;;;;;14.57;10.93;;;;;;;;;;4977762;28;20573;-63
2021/12/17 15:32:46;;;;;;;14.97;11.03;;;;;;;;;;4970792;28;20317;-63
2021/12/17 15:35:12;;;;;;;16.53;11.70;;;;;;;;;;4982368;28;20236;-63
2021/12/17 15:37:39;;;;;;;15.43;11.93;;;;;;;;;;4986815;28;20271;-64
2021/12/17 15:40:05;;;;;;;16.03;11.70;;;;;;;;;;4985147;28;20321;-64
2021/12/17 15:42:31;;;;;;;15.63;11.67;;;;;;;;;;4981703;28;20245;-63
2021/12/17 15:44:57;;;;;;;16.80;11.47;;;;;;;;;;4985843;28;20242;-65
2021/12/17 15:47:23;;;;;;;16.03;11.27;;;;;;;;;;4986802;28;20236;-64
2021/12/17 15:49:49;;;;;;;15.47;11.57;;;;;;;;;;4988313;28;20234;-64
2021/12/17 15:52:15;;;;;;;14.30;11.33;;;;;;;;;;4981185;28;20633;-64
2021/12/17 15:54:41;;;;;;;12.47;10.27;;;;;;;;;;4985263;28;20248;-63
2021/12/17 15:57:07;;;;;;;16.00;11.10;;;;;;;;;;4983987;28;20283;-64
2021/12/17 15:59:33;;;;;;;13.10;11.13;;;;;;;;;;4984164;28;20729;-63
2021/12/17 16:02:00;;;;;;;13.57;10.50;;;;;;;;;;4971322;28;21266;-64
2021/12/17 16:04:30;;;;;;;11.23;9.57;;;;;;;;;;4966080;28;20612;-63
2021/12/17 16:06:58;;;;;;;12.03;9.80;;;;;;;;;;4964985;28;20291;-64
2021/12/17 16:16:52;;;;;;;11.90;9.60;;;;;;;;;;4965426;28;20652;-63
2021/12/17 16:22:59;;;;;;;11.73;9.13;;;;;;;;;;4997062;28;20649;-59
2021/12/17 16:25:25;;;;;;;11.50;9.93;;;;;;;;;;5013488;28;20231;-59
2021/12/17 16:27:51;;;;;;;10.90;9.77;;;;;;;;;;5027554;28;20226;-59
2021/12/17 16:30:17;;;;;;;12.50;10.13;;;;;;;;;;5011413;28;20315;-58
2021/12/17 16:32:43;;;;;;;12.13;9.87;;;;;;;;;;5013079;28;20227;-58
2021/12/17 16:35:09;;;;;;;11.40;10.20;;;;;;;;;;5021160;28;20219;-59
2021/12/17 16:37:35;;;;;;;11.57;9.80;;;;;;;;;;5022925;28;20934;-59
2021/12/17 16:40:04;;;;;;;12.47;11.10;;;;;;;;;;5019089;28;20236;-59
2021/12/17 16:42:31;;;;;;;11.13;10.00;;;;;;;;;;5023887;28;20238;-58
2021/12/17 16:47:26;;;;;;;13.90;9.97;;;;;;;;;;5019477;28;20235;-59
2021/12/17 16:49:52;;;;;;;11.97;9.27;;;;;;;;;;5026352;28;20244;-59
2021/12/17 16:52:18;;;;;;;11.60;10.40;;;;;;;;;;5015768;28;20655;-59
2021/12/17 16:54:44;;;;;;;10.63;9.03;;;;;;;;;;5017072;28;20253;-59
2021/12/17 16:57:10;;;;;;;11.83;9.40;;;;;;;;;;5021959;28;20232;-59
2021/12/17 16:59:36;;;;;;;11.30;10.07;;;;;;;;;;5020115;28;20724;-58
2021/12/17 17:02:02;;;;;;;11.40;9.27;;;;;;;;;;5023464;28;20239;-59
2021/12/17 17:04:28;;;;;;;11.97;10.37;;;;;;;;;;5027092;28;20739;-59
2021/12/17 17:06:54;;;;;;;11.93;10.23;;;;;;;;;;5023233;28;20231;-59
2021/12/17 17:09:20;;;;;;;12.53;10.43;;;;;;;;;;5016184;28;20231;-59
2021/12/17 17:11:48;;;;;;;10.77;9.30;;;;;;;;;;5009018;28;20243;-59
2021/12/17 17:14:14;;;;;;;12.20;10.13;;;;;;;;;;5012931;28;20354;-58
2021/12/17 17:16:41;;;;;;;11.00;9.80;;;;;;;;;;5023400;28;20776;-58
2021/12/17 17:19:07;;;;;;;11.03;9.63;;;;;;;;;;5020345;28;20308;-59
2021/12/17 17:21:33;;;;;;;11.93;10.03;;;;;;;;;;5010965;28;20948;-59
2021/12/17 17:24:00;;;;;;;11.00;9.70;;;;;;;;;;5017597;28;20643;-59
2021/12/17 17:26:28;;;;;;;11.27;10.10;;;;;;;;;;5023053;28;20240;-59
2021/12/17 17:28:54;;;;;;;12.30;10.30;;;;;;;;;;5021505;28;20237;-58
2021/12/17 17:31:20;;;;;;;10.60;9.43;;;;;;;;;;4997281;28;20370;-59
2021/12/17 17:33:49;;;;;;;11.63;10.43;;;;;;;;;;4992434;28;20240;-59
2021/12/17 17:36:16;;;;;;;12.37;9.73;;;;;;;;;;4997395;28;20223;-59
2021/12/17 17:38:42;;;;;;;11.73;9.77;;;;;;;;;;5005125;28;20248;-58
2021/12/17 17:41:08;;;;;;;12.57;10.63;;;;;;;;;;4997481;28;20711;-59
2021/12/17 17:43:34;;;;;;;13.80;11.70;;;;;;;;;;4989929;28;24170;-59
2021/12/17 17:46:00;;;;;;;13.90;11.67;;;;;;;;;;4987015;28;20576;-59
2021/12/17 17:48:27;;;;;;;12.87;10.67;;;;;;;;;;5003269;28;20232;-59